Time;durP1;ratioP1;P1;durP2;ratioP2;P2;SDS_P1;SDS_P2;PMS_P1;PMS_P2;Temp;Humidity;BMP_temperature;BMP_pressure;BME280_temperature;BME280_humidity;BME280_pressure;Samples;Min_cycle;Max_cycle;Signal;HPM_P1;HPM_P2
2022/03/31 00:00:57;;;;;;;33.78;10.82;;;;;;;7.43;100.00;96253.06;5003991;28;20045;-53
2022/03/31 00:03:22;;;;;;;30.50;11.85;;;;;;;7.06;100.00;96255.09;5006602;28;20038;-54
2022/03/31 00:05:48;;;;;;;35.47;12.52;;;;;;;6.87;100.00;96244.88;5005225;28;20040;-53
2022/03/31 00:08:16;;;;;;;34.88;13.00;;;;;;;7.13;100.00;96250.41;5006492;28;20034;-54
2022/03/31 00:10:49;;;;;;;38.10;12.73;;;;;;;6.41;100.00;96249.09;5007507;28;20041;-53
2022/03/31 00:13:26;;;;;;;37.25;13.18;;;;;;;6.45;100.00;96240.25;5006582;28;20025;-54
2022/03/31 00:15:54;;;;;;;34.58;13.00;;;;;;;7.03;100.00;96242.28;5006477;28;20704;-54
2022/03/31 00:18:20;;;;;;;39.08;13.52;;;;;;;7.04;100.00;96243.97;5005896;28;20029;-56
2022/03/31 00:20:45;;;;;;;45.35;13.85;;;;;;;7.01;100.00;96241.56;5004006;28;20049;-55
2022/03/31 00:23:10;;;;;;;31.75;12.18;;;;;;;7.22;100.00;96238.69;5006909;28;20027;-55
2022/03/31 00:25:36;;;;;;;34.85;13.65;;;;;;;7.10;100.00;96240.22;5005568;28;20114;-54
2022/03/31 00:28:03;;;;;;;35.58;13.82;;;;;;;7.14;100.00;96237.34;5005380;28;20075;-53
2022/03/31 00:30:30;;;;;;;35.13;13.52;;;;;;;6.61;100.00;96233.34;5010257;28;20034;-54
2022/03/31 00:32:56;;;;;;;41.10;13.60;;;;;;;6.93;100.00;96233.38;5004531;28;20610;-54
2022/03/31 00:35:21;;;;;;;36.22;13.40;;;;;;;7.01;100.00;96225.16;5005514;28;20033;-53
2022/03/31 00:37:47;;;;;;;36.47;13.27;;;;;;;6.81;100.00;96231.44;5006206;28;20436;-53
2022/03/31 00:40:18;;;;;;;39.72;13.23;;;;;;;6.74;100.00;96218.78;5005734;28;20076;-54
2022/03/31 00:42:53;;;;;;;40.22;15.00;;;;;;;6.90;100.00;96221.41;5003249;28;20057;-54
2022/03/31 00:45:23;;;;;;;37.78;14.00;;;;;;;6.87;100.00;96218.13;5005596;28;20029;-53
2022/03/31 00:47:49;;;;;;;39.80;14.10;;;;;;;6.46;100.00;96214.28;5006970;28;20039;-56
2022/03/31 00:50:16;;;;;;;33.80;13.35;;;;;;;7.01;100.00;96215.63;5006406;28;20638;-54
2022/03/31 00:52:42;;;;;;;41.97;15.40;;;;;;;6.72;100.00;96214.63;5007003;28;20025;-53
2022/03/31 00:55:09;;;;;;;42.65;14.77;;;;;;;6.40;100.00;96216.38;5006186;28;20036;-56
2022/03/31 00:57:36;;;;;;;39.85;14.57;;;;;;;6.66;100.00;96204.59;5007068;28;20480;-56
2022/03/31 01:00:04;;;;;;;46.47;16.70;;;;;;;6.41;100.00;96199.91;5004347;28;20782;-54
2022/03/31 01:02:32;;;;;;;42.95;16.25;;;;;;;6.27;100.00;96196.28;5003639;28;20208;-54
2022/03/31 01:05:01;;;;;;;43.63;15.60;;;;;;;6.17;100.00;96206.28;5005826;28;20029;-56
2022/03/31 01:07:27;;;;;;;45.72;16.05;;;;;;;6.47;100.00;96199.56;5008577;28;20037;-56
2022/03/31 01:09:58;;;;;;;41.53;15.38;;;;;;;6.31;100.00;96195.19;5002949;28;20030;-56
2022/03/31 01:12:24;;;;;;;49.13;16.60;;;;;;;6.02;100.00;96193.31;5007333;28;20045;-56
2022/03/31 01:15:07;;;;;;;48.47;16.52;;;;;;;6.24;100.00;96191.25;5008865;28;20039;-55
2022/03/31 01:17:34;;;;;;;46.58;16.38;;;;;;;6.15;100.00;96190.00;5006102;28;20076;-54
2022/03/31 01:19:59;;;;;;;46.30;16.30;;;;;;;6.32;100.00;96191.72;5007267;28;20021;-53
2022/03/31 01:22:28;;;;;;;42.75;16.60;;;;;;;6.63;100.00;96186.63;5006736;28;20044;-56
2022/03/31 01:24:53;;;;;;;47.30;15.98;;;;;;;6.41;100.00;96177.41;5006448;28;20030;-55
2022/03/31 01:27:19;;;;;;;45.08;17.83;;;;;;;6.39;100.00;96179.25;5003129;28;20037;-55
2022/03/31 01:29:44;;;;;;;40.92;16.95;;;;;;;6.50;100.00;96183.88;5006472;28;20112;-57
2022/03/31 01:32:10;;;;;;;40.63;16.27;;;;;;;6.59;100.00;96178.19;5004703;28;20159;-55
2022/03/31 01:34:35;;;;;;;42.17;15.15;;;;;;;6.71;100.00;96177.53;5003450;28;20029;-54
2022/03/31 01:37:01;;;;;;;40.25;16.67;;;;;;;6.46;100.00;96174.59;5009030;28;20034;-54
2022/03/31 01:39:26;;;;;;;48.13;17.13;;;;;;;6.47;100.00;96174.53;5006830;28;20392;-53
2022/03/31 01:41:52;;;;;;;44.17;17.83;;;;;;;6.34;100.00;96166.56;5004520;28;20034;-54
2022/03/31 01:44:19;;;;;;;42.85;16.25;;;;;;;6.70;100.00;96175.84;5004186;28;20504;-54
2022/03/31 01:46:44;;;;;;;41.22;16.83;;;;;;;6.55;100.00;96167.16;5004121;28;20076;-54
2022/03/31 01:49:10;;;;;;;40.20;16.58;;;;;;;6.64;100.00;96170.19;5008003;28;20060;-53
2022/03/31 01:51:35;;;;;;;45.50;16.50;;;;;;;6.36;100.00;96169.91;5005836;28;20037;-54
2022/03/31 01:54:00;;;;;;;39.40;16.25;;;;;;;6.81;100.00;96177.03;5008203;28;20507;-53
2022/03/31 01:56:26;;;;;;;39.08;16.13;;;;;;;6.94;100.00;96170.22;5001589;28;20052;-54
2022/03/31 01:58:51;;;;;;;41.40;16.35;;;;;;;6.88;100.00;96168.00;5003203;28;20032;-53
2022/03/31 02:01:16;;;;;;;38.53;15.55;;;;;;;6.97;100.00;96167.47;5005937;28;20043;-54
2022/03/31 02:03:42;;;;;;;40.20;14.35;;;;;;;7.06;100.00;96166.97;5003284;28;20032;-55
2022/03/31 02:06:07;;;;;;;41.75;15.98;;;;;;;6.56;100.00;96158.47;5007383;28;20635;-53
2022/03/31 02:08:32;;;;;;;39.83;15.88;;;;;;;6.79;100.00;96152.97;5004434;28;20055;-54
2022/03/31 02:10:58;;;;;;;44.35;17.42;;;;;;;6.58;100.00;96145.44;5005323;28;20044;-54
2022/03/31 02:13:23;;;;;;;39.10;16.15;;;;;;;6.77;100.00;96152.22;5001556;28;20021;-53
2022/03/31 02:15:49;;;;;;;47.45;18.23;;;;;;;6.88;100.00;96152.44;5004872;28;20562;-56
2022/03/31 02:18:14;;;;;;;44.70;16.25;;;;;;;6.78;100.00;96153.88;5003925;28;20469;-54
2022/03/31 02:20:41;;;;;;;44.70;17.13;;;;;;;6.81;100.00;96157.13;5002775;28;20100;-53
2022/03/31 02:23:07;;;;;;;41.38;16.85;;;;;;;7.23;100.00;96147.03;5006119;28;20054;-54
2022/03/31 02:25:32;;;;;;;47.40;17.45;;;;;;;6.86;100.00;96149.94;5004942;28;20042;-54
2022/03/31 02:27:57;;;;;;;43.15;16.88;;;;;;;6.82;100.00;96143.25;5006443;28;20049;-54
2022/03/31 02:30:23;;;;;;;36.60;14.65;;;;;;;6.73;100.00;96139.41;5003570;28;20039;-54
2022/03/31 02:32:49;;;;;;;39.65;15.95;;;;;;;7.05;100.00;96139.34;5005067;28;20116;-56
2022/03/31 02:35:14;;;;;;;33.58;14.85;;;;;;;7.25;100.00;96129.63;5006993;28;20419;-56
2022/03/31 02:37:40;;;;;;;35.63;14.93;;;;;;;7.35;100.00;96130.75;5004648;28;20045;-54
2022/03/31 02:40:06;;;;;;;45.53;17.38;;;;;;;7.15;100.00;96121.53;5001894;28;20546;-53
2022/03/31 02:42:34;;;;;;;41.83;16.83;;;;;;;6.87;100.00;96125.69;5009325;28;20045;-53
2022/03/31 02:45:00;;;;;;;45.10;17.33;;;;;;;7.03;100.00;96125.66;5004035;28;20045;-53
2022/03/31 02:47:25;;;;;;;45.90;17.75;;;;;;;6.88;100.00;96121.34;5007662;28;20503;-54
2022/03/31 02:49:50;;;;;;;44.53;16.65;;;;;;;6.99;100.00;96121.56;5002881;28;20081;-53
2022/03/31 02:52:16;;;;;;;45.30;17.15;;;;;;;7.05;100.00;96118.63;5004487;28;20041;-53
2022/03/31 02:57:25;;;;;;;43.15;16.30;;;;;;;6.88;100.00;96116.16;5001582;28;20092;-54
2022/03/31 02:59:50;;;;;;;44.60;17.98;;;;;;;6.81;100.00;96114.84;5000570;28;20021;-54
2022/03/31 03:02:15;;;;;;;47.25;18.00;;;;;;;6.86;100.00;96118.84;5001310;28;20034;-54
2022/03/31 03:04:40;;;;;;;40.75;16.42;;;;;;;6.72;100.00;96111.81;5006515;28;20097;-54
2022/03/31 03:07:06;;;;;;;46.53;17.17;;;;;;;7.14;100.00;96099.94;5003335;28;20030;-54
2022/03/31 03:09:31;;;;;;;43.47;16.13;;;;;;;7.18;100.00;96094.59;4998712;28;20084;-53
2022/03/31 03:11:57;;;;;;;40.17;16.52;;;;;;;6.47;100.00;96101.16;5002938;28;20721;-53
2022/03/31 03:14:22;;;;;;;46.00;17.33;;;;;;;6.60;100.00;96091.81;5004992;28;20033;-53
2022/03/31 03:16:48;;;;;;;35.47;15.13;;;;;;;6.87;100.00;96093.75;5004284;28;20535;-53
2022/03/31 03:19:13;;;;;;;43.30;17.52;;;;;;;6.43;100.00;96084.13;5005073;28;20184;-53
2022/03/31 03:21:39;;;;;;;49.63;18.13;;;;;;;6.94;100.00;96080.34;5006120;28;20528;-54
2022/03/31 03:24:05;;;;;;;45.25;17.98;;;;;;;6.71;100.00;96086.84;5003851;28;20454;-53
2022/03/31 03:26:31;;;;;;;45.97;17.15;;;;;;;7.09;100.00;96083.81;5004414;28;20037;-56
2022/03/31 03:28:56;;;;;;;46.00;18.63;;;;;;;6.85;100.00;96082.63;5005655;28;20029;-55
2022/03/31 03:31:22;;;;;;;47.08;18.83;;;;;;;6.75;100.00;96083.16;5004717;28;20498;-54
2022/03/31 03:33:47;;;;;;;42.13;17.70;;;;;;;7.25;100.00;96077.75;5004997;28;20829;-53
2022/03/31 03:36:19;;;;;;;44.60;17.65;;;;;;;6.92;100.00;96076.19;5006457;28;20044;-54
2022/03/31 03:38:45;;;;;;;38.78;17.52;;;;;;;6.74;100.00;96072.88;5010433;28;20031;-53
2022/03/31 03:41:12;;;;;;;47.72;18.85;;;;;;;6.82;100.00;96064.66;5011078;28;20120;-54
2022/03/31 03:43:39;;;;;;;47.42;17.85;;;;;;;6.94;100.00;96066.56;5007446;28;20025;-54
2022/03/31 03:46:04;;;;;;;43.75;17.65;;;;;;;7.01;100.00;96059.28;5008089;28;20034;-56
2022/03/31 03:48:30;;;;;;;44.97;18.60;;;;;;;6.87;100.00;96052.28;5007539;28;20056;-55
2022/03/31 03:50:55;;;;;;;40.05;15.95;;;;;;;7.32;100.00;96061.75;5006463;28;20894;-56
2022/03/31 03:53:21;;;;;;;42.85;17.95;;;;;;;6.67;100.00;96067.22;5007436;28;20401;-54
2022/03/31 03:55:47;;;;;;;49.33;18.95;;;;;;;6.69;100.00;96069.72;5007436;28;20034;-53
2022/03/31 03:58:12;;;;;;;43.58;17.10;;;;;;;6.62;100.00;96061.47;5007113;28;20439;-54
2022/03/31 04:00:38;;;;;;;45.38;17.27;;;;;;;6.76;100.00;96065.84;5007292;28;20069;-53
2022/03/31 04:03:03;;;;;;;38.28;15.15;;;;;;;6.77;100.00;96067.53;5004904;28;20026;-56
2022/03/31 04:05:29;;;;;;;44.80;18.05;;;;;;;6.77;100.00;96072.72;5001055;28;20038;-54
2022/03/31 04:07:54;;;;;;;46.00;17.80;;;;;;;6.70;100.00;96061.84;5001822;28;20107;-53
2022/03/31 04:10:19;;;;;;;42.03;17.60;;;;;;;6.70;100.00;96072.22;5005649;28;20053;-54
2022/03/31 04:12:45;;;;;;;42.70;18.00;;;;;;;6.86;100.00;96055.81;5005979;28;20050;-54
2022/03/31 04:15:13;;;;;;;42.88;17.02;;;;;;;6.55;100.00;96057.53;5007424;28;20026;-54
2022/03/31 04:17:39;;;;;;;43.08;17.60;;;;;;;6.94;100.00;96058.78;5007247;28;20022;-53
2022/03/31 04:20:05;;;;;;;54.95;18.98;;;;;;;7.10;100.00;96053.56;5005014;28;20048;-54
2022/03/31 04:22:33;;;;;;;49.10;19.52;;;;;;;6.50;100.00;96055.19;5007444;28;20525;-54
2022/03/31 04:24:59;;;;;;;44.72;18.13;;;;;;;6.43;100.00;96047.88;5007056;28;20025;-54
2022/03/31 04:27:24;;;;;;;48.13;18.38;;;;;;;6.75;100.00;96044.31;5006516;28;20096;-54
2022/03/31 04:29:49;;;;;;;50.67;18.58;;;;;;;6.92;100.00;96045.09;5006017;28;20048;-55
2022/03/31 04:32:15;;;;;;;48.85;18.55;;;;;;;6.53;100.00;96051.63;5010566;28;20148;-54
2022/03/31 04:34:40;;;;;;;42.53;15.18;;;;;;;6.92;100.00;96051.09;5007177;28;20573;-54
2022/03/31 04:37:06;;;;;;;55.78;19.42;;;;;;;6.66;100.00;96054.34;5004390;28;20100;-54
2022/03/31 04:39:31;;;;;;;40.55;15.50;;;;;;;6.95;100.00;96056.13;5007859;28;20113;-55
2022/03/31 04:41:57;;;;;;;51.40;17.92;;;;;;;7.22;100.00;96059.78;5006512;28;20046;-55
2022/03/31 04:44:22;;;;;;;54.70;20.00;;;;;;;7.10;100.00;96053.56;5005428;28;20018;-54
2022/03/31 04:46:47;;;;;;;32.67;9.98;;;;;;;7.33;100.00;96049.59;5008550;28;20131;-55
2022/03/31 04:49:13;;;;;;;46.15;19.20;;;;;;;6.92;100.00;96050.28;5006590;28;20033;-54
2022/03/31 04:51:39;;;;;;;45.85;18.40;;;;;;;7.01;100.00;96048.91;5006915;28;20066;-55
2022/03/31 04:54:05;;;;;;;41.75;16.95;;;;;;;6.76;100.00;96045.13;5010440;28;20023;-54
2022/03/31 04:56:30;;;;;;;33.13;11.93;;;;;;;7.17;100.00;96064.41;5007228;28;20037;-54
2022/03/31 04:58:56;;;;;;;43.67;18.40;;;;;;;6.93;100.00;96059.72;5005019;28;20686;-56
2022/03/31 05:01:23;;;;;;;38.47;14.82;;;;;;;7.03;100.00;96057.44;5004418;28;20876;-54
2022/03/31 05:03:48;;;;;;;50.20;18.23;;;;;;;7.11;100.00;96066.44;5003435;28;20025;-56
2022/03/31 05:06:15;;;;;;;45.58;18.23;;;;;;;6.84;100.00;96057.66;4998881;28;20060;-53
2022/03/31 05:08:41;;;;;;;50.78;20.63;;;;;;;7.12;100.00;96060.31;5000945;28;20041;-54
2022/03/31 05:11:06;;;;;;;47.25;17.50;;;;;;;7.01;100.00;96060.09;5006895;28;20038;-53
2022/03/31 05:13:31;;;;;;;52.75;19.05;;;;;;;6.50;100.00;96057.78;5005764;28;20476;-53
2022/03/31 05:15:57;;;;;;;56.92;21.27;;;;;;;6.74;100.00;96065.94;5000654;28;20056;-55
2022/03/31 05:18:22;;;;;;;55.30;19.52;;;;;;;6.70;100.00;96061.84;5003140;28;20025;-54
2022/03/31 05:20:47;;;;;;;54.50;20.52;;;;;;;6.58;100.00;96067.75;5002399;28;20643;-57
2022/03/31 05:23:13;;;;;;;48.40;19.95;;;;;;;6.50;100.00;96064.72;5005197;28;20040;-57
2022/03/31 05:25:39;;;;;;;51.30;19.25;;;;;;;6.29;100.00;96071.94;5005547;28;20320;-56
2022/03/31 05:28:05;;;;;;;53.05;21.27;;;;;;;6.12;100.00;96068.53;5007155;28;20037;-56
2022/03/31 05:30:31;;;;;;;52.83;19.73;;;;;;;6.33;100.00;96071.69;5005984;28;20062;-57
2022/03/31 05:32:58;;;;;;;57.10;20.08;;;;;;;6.45;100.00;96069.31;5005983;28;20022;-57
2022/03/31 05:35:24;;;;;;;56.88;21.02;;;;;;;6.26;100.00;96067.75;5003171;28;20069;-58
2022/03/31 05:37:49;;;;;;;52.45;19.50;;;;;;;6.40;100.00;96059.25;5005277;28;20111;-57
2022/03/31 05:40:16;;;;;;;59.25;20.70;;;;;;;6.44;100.00;96058.13;5006752;28;20033;-55
2022/03/31 05:42:41;;;;;;;57.22;21.08;;;;;;;6.58;100.00;96062.56;5004711;28;20041;-57
2022/03/31 05:45:12;;;;;;;52.45;19.30;;;;;;;6.49;100.00;96055.31;5005297;28;20030;-56
2022/03/31 05:47:39;;;;;;;51.78;20.05;;;;;;;6.62;100.00;96051.09;5005564;28;20113;-56
2022/03/31 05:50:05;;;;;;;53.00;20.42;;;;;;;6.43;100.00;96051.28;5006766;28;20030;-55
2022/03/31 05:52:30;;;;;;;57.85;21.42;;;;;;;6.59;100.00;96053.84;5005512;28;20060;-58
2022/03/31 05:54:55;;;;;;;74.82;23.42;;;;;;;6.36;100.00;96062.91;5002293;28;20025;-56
2022/03/31 05:57:21;;;;;;;65.13;22.42;;;;;;;6.54;100.00;96066.22;5003796;28;20069;-57
2022/03/31 05:59:46;;;;;;;56.85;20.77;;;;;;;6.44;100.00;96065.91;5006227;28;20945;-56
2022/03/31 06:02:12;;;;;;;64.95;21.77;;;;;;;6.61;100.00;96067.56;5007290;28;20033;-58
2022/03/31 06:04:39;;;;;;;55.35;20.75;;;;;;;6.69;100.00;96070.56;5006708;28;20091;-56
2022/03/31 06:07:05;;;;;;;61.03;21.02;;;;;;;6.72;100.00;96072.97;4999537;28;20527;-57
2022/03/31 06:09:30;;;;;;;50.63;20.65;;;;;;;6.54;100.00;96076.59;5003156;28;20044;-58
2022/03/31 06:11:56;;;;;;;62.38;21.45;;;;;;;6.72;100.00;96070.38;5007295;28;20042;-56
2022/03/31 06:14:21;;;;;;;51.00;19.73;;;;;;;6.80;100.00;96077.72;5007955;28;20029;-58
2022/03/31 06:16:49;;;;;;;53.92;19.90;;;;;;;6.69;100.00;96075.75;5004563;28;20030;-57
2022/03/31 06:19:15;;;;;;;47.22;17.52;;;;;;;6.87;100.00;96073.03;5001569;28;20149;-56
2022/03/31 06:21:41;;;;;;;52.20;18.65;;;;;;;6.94;100.00;96076.94;5007402;28;20499;-58
2022/03/31 06:24:07;;;;;;;48.47;19.25;;;;;;;6.71;100.00;96079.09;5002755;28;20032;-56
2022/03/31 06:26:33;;;;;;;58.15;20.67;;;;;;;6.90;100.00;96063.31;5002475;28;20038;-57
2022/03/31 06:28:58;;;;;;;50.80;18.50;;;;;;;6.96;100.00;96067.31;5005440;28;20029;-56
2022/03/31 06:31:24;;;;;;;58.75;20.40;;;;;;;6.87;100.00;96062.66;5005020;28;20053;-57
2022/03/31 06:33:50;;;;;;;54.50;21.30;;;;;;;6.77;100.00;96071.88;5004862;28;20133;-58
2022/03/31 06:36:16;;;;;;;47.65;19.10;;;;;;;6.50;100.00;96065.56;5003332;28;20092;-55
2022/03/31 06:38:42;;;;;;;48.53;19.05;;;;;;;6.32;100.00;96067.44;5008088;28;20026;-58
2022/03/31 06:41:10;;;;;;;56.15;21.17;;;;;;;6.75;100.00;96070.22;5004001;28;20490;-56
2022/03/31 06:43:37;;;;;;;46.13;18.42;;;;;;;6.56;100.00;96069.56;5005443;28;20033;-57
2022/03/31 06:46:03;;;;;;;58.80;21.42;;;;;;;6.97;100.00;96056.03;5002472;28;20857;-56
2022/03/31 06:48:31;;;;;;;52.28;19.73;;;;;;;6.82;100.00;96054.31;5003471;28;20030;-56
2022/03/31 06:50:58;;;;;;;46.90;19.13;;;;;;;6.58;100.00;96054.78;5002848;28;20091;-56
2022/03/31 06:53:24;;;;;;;43.72;18.42;;;;;;;7.17;100.00;96051.44;5003445;28;20098;-56
2022/03/31 06:55:49;;;;;;;47.00;19.88;;;;;;;6.94;100.00;96053.59;5002179;28;20046;-56
2022/03/31 06:58:15;;;;;;;49.33;19.13;;;;;;;6.66;100.00;96055.19;5005317;28;20028;-56
2022/03/31 07:00:41;;;;;;;45.45;18.58;;;;;;;6.60;100.00;96065.91;5000984;28;20429;-57
2022/03/31 07:03:06;;;;;;;49.83;18.88;;;;;;;6.86;100.00;96061.00;5004407;28;20036;-57
2022/03/31 07:05:35;;;;;;;47.10;19.33;;;;;;;6.77;100.00;96049.41;5004149;28;20037;-56
2022/03/31 07:08:00;;;;;;;46.90;18.92;;;;;;;6.81;100.00;96061.25;5002727;28;20153;-58
2022/03/31 07:10:26;;;;;;;52.97;18.60;;;;;;;6.76;100.00;96050.31;5006886;28;20068;-57
2022/03/31 07:12:51;;;;;;;48.08;18.10;;;;;;;7.02;100.00;96061.78;5006111;28;20849;-57
2022/03/31 07:15:16;;;;;;;47.67;18.27;;;;;;;6.82;100.00;96049.13;5003834;28;20138;-56
2022/03/31 07:17:42;;;;;;;52.85;19.83;;;;;;;7.30;100.00;96049.81;5001185;28;20086;-56
2022/03/31 07:20:07;;;;;;;47.78;19.67;;;;;;;6.90;100.00;96054.72;5003264;28;20426;-52
2022/03/31 07:22:33;;;;;;;49.22;17.10;;;;;;;7.01;100.00;96057.53;5004443;28;20024;-56
2022/03/31 07:24:59;;;;;;;54.17;18.63;;;;;;;7.18;100.00;96066.91;5001350;28;20498;-57
2022/03/31 07:27:25;;;;;;;46.00;19.45;;;;;;;6.91;100.00;96064.13;5003975;28;20038;-55
2022/03/31 07:29:50;;;;;;;50.95;18.45;;;;;;;7.04;100.00;96059.94;5000662;28;20029;-55
2022/03/31 07:32:16;;;;;;;45.90;17.95;;;;;;;7.02;100.00;96056.59;5004888;28;20437;-54
2022/03/31 07:34:41;;;;;;;43.63;17.75;;;;;;;7.60;100.00;96049.72;5002711;28;20049;-55
2022/03/31 07:37:07;;;;;;;42.35;17.00;;;;;;;7.31;100.00;96041.09;5002992;28;20045;-56
2022/03/31 07:39:34;;;;;;;45.50;17.27;;;;;;;7.53;100.00;96046.69;5005943;28;20034;-57
2022/03/31 07:42:00;;;;;;;45.30;17.45;;;;;;;7.64;100.00;96042.59;4999589;28;20042;-57
2022/03/31 07:44:25;;;;;;;43.20;16.92;;;;;;;7.39;100.00;96046.66;5005443;28;20041;-55
2022/03/31 07:46:51;;;;;;;39.30;16.17;;;;;;;7.26;100.00;96050.88;4999919;28;20401;-56
2022/03/31 07:49:17;;;;;;;42.20;16.77;;;;;;;6.88;100.00;96054.81;5005210;28;20026;-55
2022/03/31 07:51:43;;;;;;;41.65;16.33;;;;;;;7.31;100.00;96041.09;5006004;28;20040;-56
2022/03/31 07:54:08;;;;;;;39.85;16.48;;;;;;;7.02;100.00;96037.59;5005458;28;20026;-56
2022/03/31 07:56:33;;;;;;;40.65;15.90;;;;;;;7.30;100.00;96029.88;5005651;28;20041;-56
2022/03/31 07:58:59;;;;;;;44.75;16.83;;;;;;;7.94;100.00;96026.06;5004328;28;20057;-57
2022/03/31 08:01:24;;;;;;;42.42;16.15;;;;;;;7.37;100.00;96029.50;5003904;28;20586;-57
2022/03/31 08:03:52;;;;;;;37.13;13.70;;;;;;;7.72;100.00;96030.00;5003887;28;20040;-57
2022/03/31 08:06:18;;;;;;;47.33;15.85;;;;;;;8.26;100.00;96034.44;5001864;28;20221;-56
2022/03/31 08:08:43;;;;;;;37.20;14.25;;;;;;;8.46;100.00;96020.22;5005595;28;20624;-57
2022/03/31 08:11:09;;;;;;;34.35;14.60;;;;;;;8.55;100.00;96029.22;5004736;28;20133;-56
2022/03/31 08:13:34;;;;;;;36.60;13.77;;;;;;;8.01;100.00;96020.38;5003026;28;20029;-56
2022/03/31 08:16:00;;;;;;;38.28;14.55;;;;;;;8.13;100.00;96018.81;4997571;28;20034;-57
2022/03/31 08:18:28;;;;;;;37.53;14.65;;;;;;;8.18;100.00;96016.75;5005269;28;20028;-58
2022/03/31 08:20:54;;;;;;;31.27;13.70;;;;;;;8.64;100.00;96013.03;5001658;28;20388;-56
2022/03/31 08:23:20;;;;;;;36.30;14.13;;;;;;;9.37;100.00;96011.66;5008846;28;20335;-55
2022/03/31 08:25:45;;;;;;;32.40;14.55;;;;;;;8.98;100.00;96010.78;5004008;28;20072;-57
2022/03/31 08:28:11;;;;;;;33.50;13.57;;;;;;;8.66;100.00;96004.19;5006582;28;20032;-57
2022/03/31 08:30:36;;;;;;;30.83;12.95;;;;;;;8.61;100.00;96008.84;5006764;28;20479;-58
2022/03/31 08:33:02;;;;;;;30.10;11.15;;;;;;;8.55;100.00;96014.44;5000330;28;20685;-57
2022/03/31 08:35:28;;;;;;;32.95;11.85;;;;;;;8.47;100.00;96024.47;5009941;28;20040;-60
2022/03/31 08:37:54;;;;;;;34.08;12.60;;;;;;;7.94;100.00;96015.69;5008132;28;20017;-56
2022/03/31 08:40:20;;;;;;;27.92;10.95;;;;;;;8.12;100.00;96019.72;5002875;28;20040;-56
2022/03/31 08:42:45;;;;;;;31.00;11.30;;;;;;;8.02;100.00;96011.69;5004559;28;20060;-57
2022/03/31 08:45:14;;;;;;;34.97;12.07;;;;;;;8.15;100.00;96016.94;5007496;28;20372;-57
2022/03/31 08:47:42;;;;;;;28.75;11.07;;;;;;;8.10;100.00;96025.03;5007524;28;20021;-57
2022/03/31 08:50:08;;;;;;;28.92;10.63;;;;;;;8.22;100.00;96020.81;5006874;28;20026;-54
2022/03/31 08:52:33;;;;;;;32.47;12.45;;;;;;;8.04;100.00;96016.78;5006367;28;20112;-56
2022/03/31 08:54:59;;;;;;;34.97;12.65;;;;;;;8.08;100.00;96016.47;5005761;28;20443;-58
2022/03/31 08:57:25;;;;;;;34.13;11.98;;;;;;;8.22;100.00;96026.00;5006796;28;20413;-57
2022/03/31 08:59:51;;;;;;;30.40;11.23;;;;;;;8.26;100.00;96018.88;5005522;28;20022;-57
2022/03/31 09:02:23;;;;;;;30.85;11.60;;;;;;;8.82;100.00;96016.16;5006812;28;20458;-58
2022/03/31 09:05:02;;;;;;;31.60;11.30;;;;;;;8.79;100.00;96011.19;5004339;28;20112;-56
2022/03/31 09:07:28;;;;;;;35.22;11.68;;;;;;;8.63;100.00;96012.16;4983739;28;20394;-57
2022/03/31 09:09:53;;;;;;;28.08;10.77;;;;;;;8.61;100.00;96013.22;4989082;28;20797;-57
2022/03/31 09:12:19;;;;;;;33.88;12.52;;;;;;;8.25;100.00;96017.19;5005687;28;20041;-55
2022/03/31 09:14:44;;;;;;;34.70;11.60;;;;;;;8.15;100.00;96022.13;5006250;28;20025;-57
2022/03/31 09:17:11;;;;;;;36.60;12.35;;;;;;;8.15;100.00;96016.94;5003060;28;20370;-55
2022/03/31 09:19:37;;;;;;;30.67;11.93;;;;;;;8.51;100.00;96007.78;5006495;28;20046;-56
2022/03/31 09:22:02;;;;;;;30.67;10.35;;;;;;;8.12;100.00;96001.56;5004009;28;20026;-57
2022/03/31 09:24:31;;;;;;;32.83;11.13;;;;;;;8.03;100.00;96008.19;5005629;28;20477;-56
2022/03/31 09:26:58;;;;;;;31.92;11.38;;;;;;;8.55;100.00;96003.22;5001600;28;20608;-56
2022/03/31 09:29:28;;;;;;;30.05;11.95;;;;;;;9.32;100.00;95998.97;5004376;28;20071;-55
2022/03/31 09:32:05;;;;;;;29.63;11.07;;;;;;;8.62;100.00;95997.53;5002756;28;20582;-58
2022/03/31 09:34:42;;;;;;;31.67;11.48;;;;;;;8.55;100.00;95998.84;5003287;28;20021;-57
2022/03/31 09:37:07;;;;;;;28.58;10.57;;;;;;;8.36;100.00;96006.13;5007227;28;20532;-55
2022/03/31 09:39:32;;;;;;;31.40;11.02;;;;;;;8.83;100.00;95999.66;5006937;28;20072;-57
2022/03/31 09:41:58;;;;;;;29.08;10.90;;;;;;;8.79;100.00;95995.59;5002025;28;20660;-57
2022/03/31 09:44:23;;;;;;;28.48;10.32;;;;;;;8.40;100.00;95989.41;5004356;28;20029;-56
2022/03/31 09:46:50;;;;;;;27.38;10.43;;;;;;;8.71;100.00;95993.47;5003684;28;20039;-55
2022/03/31 09:49:24;;;;;;;25.77;10.40;;;;;;;8.97;100.00;95996.09;5007068;28;20021;-55
2022/03/31 09:51:55;;;;;;;32.95;11.25;;;;;;;9.22;100.00;95997.91;5004274;28;20033;-57
2022/03/31 09:54:23;;;;;;;32.78;11.35;;;;;;;8.92;100.00;96001.63;5003723;28;20310;-55
2022/03/31 09:56:48;;;;;;;30.17;11.15;;;;;;;8.41;100.00;95996.28;5003802;28;20038;-58
2022/03/31 09:59:15;;;;;;;30.85;10.80;;;;;;;9.13;100.00;95995.94;5001857;28;20113;-55
2022/03/31 10:01:41;;;;;;;31.63;10.50;;;;;;;8.53;100.00;95994.66;5007169;28;20703;-57
2022/03/31 10:04:08;;;;;;;30.77;11.43;;;;;;;8.59;100.00;95987.31;5006998;28;20040;-54
2022/03/31 10:06:36;;;;;;;35.20;11.73;;;;;;;8.29;100.00;95998.72;5001617;28;20038;-56
2022/03/31 10:09:04;;;;;;;31.15;10.77;;;;;;;8.32;100.00;95989.91;5004980;28;20029;-56
2022/03/31 10:11:32;;;;;;;28.65;11.48;;;;;;;8.64;100.00;95998.25;5000963;28;20044;-57
2022/03/31 10:14:17;;;;;;;27.08;10.55;;;;;;;8.72;100.00;96002.94;5002643;28;20068;-57
2022/03/31 10:16:55;;;;;;;35.22;10.82;;;;;;;8.57;100.00;95991.78;5008948;28;20107;-58
2022/03/31 10:19:36;;;;;;;26.40;10.27;;;;;;;8.62;100.00;95988.88;5004569;28;20025;-56
2022/03/31 10:25:08;;;;;;;34.10;10.23;;;;;;;8.38;100.00;95978.28;5002544;28;20031;-56
2022/03/31 10:27:36;;;;;;;25.13;9.20;;;;;;;8.44;100.00;95980.53;5005504;28;20395;-57
2022/03/31 10:30:11;;;;;;;22.60;8.93;;;;;;;8.49;100.00;95973.25;4999435;28;20028;-56
2022/03/31 10:32:37;;;;;;;24.52;9.10;;;;;;;8.63;100.00;95980.16;5004860;28;20046;-58
2022/03/31 10:35:03;;;;;;;31.95;10.55;;;;;;;8.44;100.00;95976.16;5004495;28;20035;-55
2022/03/31 10:37:34;;;;;;;25.83;9.27;;;;;;;8.70;100.00;95975.41;5004543;28;20018;-58
2022/03/31 10:40:00;;;;;;;28.80;10.07;;;;;;;8.60;100.00;95970.81;5007785;28;20113;-57
2022/03/31 10:42:26;;;;;;;25.17;8.63;;;;;;;8.70;100.00;95970.19;5004233;28;20042;-56
2022/03/31 10:45:13;;;;;;;36.13;10.57;;;;;;;8.48;100.00;95967.22;5005031;28;20148;-56
2022/03/31 10:47:41;;;;;;;25.27;9.45;;;;;;;8.86;100.00;95965.66;5002819;28;20057;-57
2022/03/31 10:50:09;;;;;;;28.90;9.98;;;;;;;8.99;100.00;95965.66;5006247;28;20118;-56
2022/03/31 10:52:35;;;;;;;26.48;9.75;;;;;;;9.35;100.00;95957.09;5005636;28;20065;-56
2022/03/31 10:55:05;;;;;;;31.42;10.27;;;;;;;9.20;100.00;95963.38;5007521;28;20470;-57
2022/03/31 10:57:41;;;;;;;26.63;9.10;;;;;;;9.27;100.00;95952.44;4998502;28;20036;-56
2022/03/31 11:00:08;;;;;;;28.17;8.90;;;;;;;9.05;100.00;95952.25;5005462;28;20391;-56
2022/03/31 11:02:40;;;;;;;24.65;8.60;;;;;;;8.77;100.00;95961.91;5005765;28;20644;-56
2022/03/31 11:05:05;;;;;;;28.25;9.45;;;;;;;8.92;100.00;95957.44;5005889;28;20526;-56
2022/03/31 11:07:31;;;;;;;24.67;8.77;;;;;;;8.56;100.00;95968.50;5008124;28;20029;-55
2022/03/31 11:10:07;;;;;;;27.77;9.32;;;;;;;8.35;100.00;95955.13;5005383;28;20025;-57
2022/03/31 11:12:33;;;;;;;25.63;9.45;;;;;;;8.51;100.00;95954.97;5007664;28;20478;-55
2022/03/31 11:15:07;;;;;;;26.45;9.55;;;;;;;8.33;100.00;95951.78;5006607;28;20457;-57
2022/03/31 11:17:33;;;;;;;28.60;10.00;;;;;;;8.85;100.00;95948.38;4975117;28;20130;-55
2022/03/31 11:20:03;;;;;;;25.98;10.23;;;;;;;8.98;100.00;95933.63;4976485;28;20030;-57